Elcho Island, Australia
Current Conditions -  °F | °C
As of 2:00 PM on Saturday 22 Nov 2014 (Local Time) from YPGV Reporting Station
Scattered Clouds Scattered Clouds  
Wind Chill: 90°   Ceiling: Unl
Heat Index: 95°   Visibility: 6mi
Dew Point: 70°   Wind: 10mph
Humidity: 52%   Direction: 70°ENE
Pressure: 29.83"   Gusts: NA
Location:  12.02°S, 135.55°E
Report Text: YPGV 220500Z 07009KT 9999 FEW036 SCT250 32/21 Q1010
Loading
Personal Weather Stations






























Interactive Weather Map New forecast layout! Learn more

10-Day Weather Forecast

Advertisements
Track Severe Weather on mobile